createdAt,value
2018-08-18T00:00:54.273Z,100885.03
2018-08-18T00:03:25.089Z,100888.83
2018-08-18T00:05:55.928Z,100899.17
2018-08-18T00:08:26.699Z,100895.15
2018-08-18T00:10:57.527Z,100895.98
2018-08-18T00:13:28.255Z,100897.18
2018-08-18T00:15:58.965Z,100901.27
2018-08-18T00:18:29.706Z,100900.04
2018-08-18T00:21:00.447Z,100903.53
2018-08-18T00:23:31.098Z,100900.11
2018-08-18T00:26:01.868Z,100894.02
2018-08-18T00:28:32.572Z,100893.39
2018-08-18T00:31:03.263Z,100897.11
2018-08-18T00:33:33.885Z,100892.86
2018-08-18T00:36:04.708Z,100896.48
2018-08-18T00:38:35.352Z,100894.13
2018-08-18T00:41:06.169Z,100897.25
2018-08-18T00:43:36.822Z,100897.31
2018-08-18T00:46:07.656Z,100897.95
2018-08-18T00:48:38.379Z,100897.84
2018-08-18T00:51:09.103Z,100903.80
2018-08-18T00:53:39.937Z,100901.06
2018-08-18T00:56:10.634Z,100907.58
2018-08-18T00:58:52.240Z,100898.94
2018-08-18T01:01:22.976Z,100900.56
2018-08-18T01:03:55.151Z,100905.44
2018-08-18T01:06:32.858Z,100906.67
2018-08-18T01:09:05.335Z,100905.23
2018-08-18T01:11:41.508Z,100911.92
2018-08-18T01:14:21.577Z,100912.13
2018-08-18T01:16:57.728Z,100918.21
2018-08-18T01:19:33.789Z,100919.67
2018-08-18T01:22:11.921Z,100918.61
2018-08-18T01:24:48.429Z,100917.70
2018-08-18T01:27:24.322Z,100921.89
2018-08-18T01:30:04.155Z,100922.35
2018-08-18T01:32:40.119Z,100919.19
2018-08-18T01:35:16.253Z,100921.54
2018-08-18T01:37:52.290Z,100919.34
2018-08-18T01:40:28.353Z,100922.47
2018-08-18T01:43:04.552Z,100925.13
2018-08-18T01:45:40.732Z,100919.91
2018-08-18T01:48:16.808Z,100922.97
2018-08-18T01:50:53.134Z,100921.23
2018-08-18T01:53:29.184Z,100927.42
2018-08-18T01:56:05.232Z,100922.35
2018-08-18T01:58:41.108Z,100921.33
2018-08-18T02:01:17.185Z,100921.23
2018-08-18T02:03:53.100Z,100922.52
2018-08-18T02:06:29.172Z,100921.84
2018-08-18T02:09:06.422Z,100918.83
2018-08-18T02:11:43.053Z,100920.83
2018-08-18T02:14:21.424Z,100909.69
2018-08-18T02:17:14.121Z,100902.38
2018-08-18T02:19:50.126Z,100905.95
2018-08-18T02:22:26.747Z,100901.11
2018-08-18T02:25:02.594Z,100905.19
2018-08-18T02:27:39.116Z,100904.73
2018-08-18T02:30:22.213Z,100903.41
2018-08-18T02:32:58.233Z,100903.34
2018-08-18T02:35:34.291Z,100906.58
2018-08-18T02:38:10.311Z,100899.73
2018-08-18T02:40:46.223Z,100905.23
2018-08-18T02:43:25.117Z,100908.47
2018-08-18T02:46:18.509Z,100914.22
2018-08-18T02:48:54.574Z,100914.52
2018-08-18T02:51:31.324Z,100916.43
2018-08-18T02:54:07.417Z,100917.39
2018-08-18T02:56:43.747Z,100923.82
2018-08-18T02:59:19.778Z,100916.78
2018-08-18T03:01:55.837Z,100919.13
2018-08-18T03:04:35.809Z,100922.81
2018-08-18T03:07:11.912Z,100922.13
2018-08-18T03:09:48.029Z,100927.13
2018-08-18T03:12:29.498Z,100923.77
2018-08-18T03:15:05.409Z,100926.15
2018-08-18T03:17:41.395Z,100923.80
2018-08-18T03:20:17.463Z,100925.46
2018-08-18T03:22:53.556Z,100931.78
2018-08-18T03:25:44.714Z,100926.27
2018-08-18T03:28:21.660Z,100933.54
2018-08-18T03:30:57.703Z,100929.93
2018-08-18T03:33:33.720Z,100934.47
2018-08-18T03:36:25.662Z,100937.52
2018-08-18T03:39:01.581Z,100938.36
2018-08-18T03:41:37.711Z,100931.72
2018-08-18T03:44:13.828Z,100933.59
2018-08-18T03:46:49.928Z,100938.36
2018-08-18T03:49:26.827Z,100937.43
2018-08-18T03:52:03.234Z,100934.77
2018-08-18T03:54:39.092Z,100938.45
2018-08-18T03:57:15.152Z,100939.86
2018-08-18T03:59:51.124Z,100932.20
2018-08-18T04:02:27.928Z,100934.48
2018-08-18T04:05:08.138Z,100938.47
2018-08-18T04:07:47.082Z,100943.77
2018-08-18T04:10:23.249Z,100945.09
2018-08-18T04:13:01.013Z,100941.73
2018-08-18T04:15:37.019Z,100945.25
2018-08-18T04:18:16.422Z,100949.87
2018-08-18T04:20:52.508Z,100948.91
2018-08-18T04:23:28.392Z,100955.09
2018-08-18T04:26:04.301Z,100951.41
2018-08-18T04:28:40.237Z,100957.04
2018-08-18T04:31:19.148Z,100957.59
2018-08-18T04:33:55.060Z,100962.13
2018-08-18T04:36:31.249Z,100956.32
2018-08-18T04:39:14.749Z,100961.16
2018-08-18T04:41:50.647Z,100961.63
2018-08-18T04:44:57.536Z,100964.45
2018-08-18T04:47:33.495Z,100967.66
2018-08-18T04:50:09.432Z,100969.75
2018-08-18T04:52:45.550Z,100970.38
2018-08-18T04:55:22.041Z,100965.08
2018-08-18T04:57:58.022Z,100959.36
2018-08-18T05:00:34.039Z,100967.23
2018-08-18T05:03:10.131Z,100964.34
2018-08-18T05:05:46.221Z,100965.30
2018-08-18T05:08:22.315Z,100969.19
2018-08-18T05:10:58.327Z,100973.33
2018-08-18T05:13:34.168Z,100977.98
2018-08-18T05:16:10.196Z,100974.22
2018-08-18T05:18:46.179Z,100976.35
2018-08-18T05:21:23.276Z,100972.86
2018-08-18T05:24:09.978Z,100980.45
2018-08-18T05:26:45.851Z,100971.47
2018-08-18T05:29:22.074Z,100978.84
2018-08-18T05:31:58.093Z,100979.66
2018-08-18T05:34:33.968Z,100973.72
2018-08-18T05:37:09.857Z,100985.72
2018-08-18T05:39:45.893Z,100984.73
2018-08-18T05:42:22.049Z,100986.41
2018-08-18T05:44:58.228Z,100984.70
2018-08-18T05:47:34.075Z,100983.24
2018-08-18T05:50:10.440Z,100990.53
2018-08-18T05:52:46.395Z,100987.37
2018-08-18T05:55:24.013Z,100983.18
2018-08-18T05:58:00.054Z,100982.25
2018-08-18T06:00:36.077Z,100986.37
2018-08-18T06:03:15.628Z,100984.23
2018-08-18T06:05:52.571Z,100989.55
2018-08-18T06:08:28.667Z,100995.47
2018-08-18T06:11:05.405Z,100995.97
2018-08-18T06:13:41.502Z,101007.86
2018-08-18T06:16:17.455Z,101008.95
2018-08-18T06:18:53.773Z,101008.20
2018-08-18T06:21:29.821Z,101012.58
2018-08-18T06:24:05.883Z,101013.61
2018-08-18T06:26:43.046Z,101017.03
2018-08-18T06:29:18.913Z,101016.36
2018-08-18T06:32:02.520Z,101011.52
2018-08-18T06:34:39.642Z,101019.13
2018-08-18T06:37:15.988Z,101019.55
2018-08-18T06:39:57.681Z,101025.81
2018-08-18T06:42:45.122Z,101022.20
2018-08-18T06:45:21.469Z,101015.19
2018-08-18T06:50:57.333Z,101018.97
2018-08-18T06:53:38.683Z,101018.16
2018-08-18T06:56:14.602Z,101024.14
2018-08-18T06:58:51.432Z,101028.20
2018-08-18T07:01:27.377Z,101032.26
2018-08-18T07:04:03.550Z,101026.54
2018-08-18T07:06:39.773Z,101032.58
2018-08-18T07:09:15.898Z,101030.16
2018-08-18T07:11:52.070Z,101029.47
2018-08-18T07:14:28.053Z,101030.16
2018-08-18T07:17:03.984Z,101035.03
2018-08-18T07:19:39.889Z,101030.77
2018-08-18T07:22:19.745Z,101034.33
2018-08-18T07:24:55.561Z,101031.09
2018-08-18T07:27:31.582Z,101034.16
2018-08-18T07:30:08.452Z,101040.78
2018-08-18T07:32:44.468Z,101038.38
2018-08-18T07:35:20.463Z,101032.59
2018-08-18T07:37:56.435Z,101034.75
2018-08-18T07:40:41.538Z,101033.13
2018-08-18T07:43:20.864Z,101035.70
2018-08-18T07:45:58.200Z,101041.49
2018-08-18T07:48:34.146Z,101038.64
2018-08-18T07:51:10.181Z,101034.88
2018-08-18T07:53:45.988Z,101039.25
2018-08-18T07:56:21.923Z,101040.84
2018-08-18T07:58:57.771Z,101038.08
2018-08-18T08:01:33.687Z,101043.87
2018-08-18T08:04:09.680Z,101046.31
2018-08-18T08:06:45.800Z,101046.73
2018-08-18T08:09:21.520Z,101052.88
2018-08-18T08:11:57.428Z,101048.97
2018-08-18T08:14:33.385Z,101053.42
2018-08-18T08:17:09.765Z,101044.70
2018-08-18T08:19:46.033Z,101050.09
2018-08-18T08:22:21.973Z,101046.02
2018-08-18T08:24:57.852Z,101044.63
2018-08-18T08:27:33.776Z,101041.02
2018-08-18T08:30:11.840Z,101053.98
2018-08-18T08:32:48.122Z,101054.45
2018-08-18T08:35:24.084Z,101055.42
2018-08-18T08:38:00.155Z,101050.83
2018-08-18T08:40:36.279Z,101049.34
2018-08-18T08:43:28.852Z,101058.81
2018-08-18T08:46:04.852Z,101051.67
2018-08-18T08:48:40.679Z,101056.61
2018-08-18T08:51:16.695Z,101056.08
2018-08-18T08:53:55.228Z,101049.48
2018-08-18T08:56:38.990Z,101043.55
2018-08-18T08:59:14.905Z,101049.38
2018-08-18T09:01:51.111Z,101052.05
2018-08-18T09:04:26.960Z,101053.18
2018-08-18T09:07:05.020Z,101053.32
2018-08-18T09:09:41.065Z,101049.36
2018-08-18T09:12:17.044Z,101041.73
2018-08-18T09:14:53.824Z,101043.89
2018-08-18T09:17:29.789Z,101038.94
2018-08-18T09:20:08.035Z,101040.27
2018-08-18T09:23:02.022Z,101044.84
2018-08-18T09:25:38.022Z,101040.34
2018-08-18T09:28:13.958Z,101044.20
2018-08-18T09:30:49.834Z,101035.84
2018-08-18T09:33:25.788Z,101037.91
2018-08-18T09:36:05.064Z,101036.95
2018-08-18T09:38:40.898Z,101029.63
2018-08-18T09:41:17.020Z,101034.85
2018-08-18T09:43:52.815Z,101035.69
2018-08-18T09:46:28.851Z,101033.22
2018-08-18T09:49:04.826Z,101029.87
2018-08-18T09:51:40.647Z,101023.91
2018-08-18T09:54:16.747Z,101025.46
2018-08-18T09:56:52.643Z,101037.30
2018-08-18T09:59:29.313Z,101031.42
2018-08-18T10:02:05.868Z,101034.27
2018-08-18T10:04:41.920Z,101034.14
2018-08-18T10:07:17.986Z,101031.99
2018-08-18T10:09:53.927Z,101037.09
2018-08-18T10:12:29.876Z,101031.88
2018-08-18T10:15:05.858Z,101037.05
2018-08-18T10:17:41.904Z,101040.33
2018-08-18T10:20:18.117Z,101042.67
2018-08-18T10:22:54.208Z,101030.17
2018-08-18T10:25:30.045Z,101038.91
2018-08-18T10:28:06.336Z,101036.05
2018-08-18T10:30:42.294Z,101035.28
2018-08-18T10:33:18.254Z,101025.69
2018-08-18T10:35:54.161Z,101027.50
2018-08-18T10:38:30.208Z,101028.30
2018-08-18T10:41:06.416Z,101014.69
2018-08-18T10:43:42.381Z,101025.88
2018-08-18T10:46:18.387Z,101029.48
2018-08-18T10:48:54.267Z,101019.91
2018-08-18T10:51:47.093Z,101015.33
2018-08-18T10:54:22.879Z,101014.66
2018-08-18T10:56:58.951Z,101009.75
2018-08-18T10:59:50.753Z,101008.52
2018-08-18T11:02:35.603Z,101013.84
2018-08-18T11:05:11.553Z,101011.54
2018-08-18T11:07:55.134Z,101011.61
2018-08-18T11:10:32.877Z,101009.52
2018-08-18T11:13:08.843Z,101000.84
2018-08-18T11:15:45.793Z,101006.11
2018-08-18T11:18:21.899Z,101007.81
2018-08-18T11:20:57.922Z,101010.02
2018-08-18T11:23:33.892Z,101010.88
2018-08-18T11:26:09.849Z,101001.06
2018-08-18T11:28:45.954Z,101005.55
2018-08-18T11:31:21.620Z,101007.41
2018-08-18T11:33:57.707Z,101011.64
2018-08-18T11:36:33.596Z,101014.96
2018-08-18T11:39:09.740Z,101006.17
2018-08-18T11:41:45.785Z,101002.55
2018-08-18T11:44:21.661Z,101008.02
2018-08-18T11:46:57.699Z,101010.52
2018-08-18T11:49:33.731Z,101000.89
2018-08-18T11:52:09.548Z,100993.33
2018-08-18T11:54:45.402Z,100983.79
2018-08-18T11:57:21.199Z,100976.58
2018-08-18T11:59:57.047Z,100977.70
2018-08-18T12:02:33.061Z,100973.00
2018-08-18T12:05:09.085Z,100969.67
2018-08-18T12:07:44.990Z,100972.02
2018-08-18T12:10:20.889Z,100973.22
2018-08-18T12:12:56.836Z,100972.51
2018-08-18T12:15:33.532Z,100973.88
2018-08-18T12:18:09.570Z,100964.52
2018-08-18T12:20:45.486Z,100969.72
2018-08-18T12:23:21.487Z,100969.63
2018-08-18T12:26:02.759Z,100982.37
2018-08-18T12:28:42.917Z,100982.37
2018-08-18T12:31:20.405Z,100968.98
2018-08-18T12:33:56.399Z,100967.90
2018-08-18T12:36:32.351Z,100965.95
2018-08-18T12:39:08.515Z,100958.48
2018-08-18T12:41:44.437Z,100961.81
2018-08-18T12:44:24.464Z,100962.39
2018-08-18T12:47:03.672Z,100957.92
2018-08-18T12:49:39.641Z,100951.78
2018-08-18T12:55:21.875Z,100950.69
2018-08-18T12:57:57.898Z,100947.77
2018-08-18T13:00:33.716Z,100939.38
2018-08-18T13:03:09.694Z,100940.31
2018-08-18T13:05:45.607Z,100935.21
2018-08-18T13:08:21.741Z,100934.50
2018-08-18T13:10:57.802Z,100935.13
2018-08-18T13:13:33.806Z,100929.91
2018-08-18T13:16:09.844Z,100929.65
2018-08-18T13:18:45.747Z,100933.07
2018-08-18T13:21:21.840Z,100928.25
2018-08-18T13:23:59.799Z,100928.36
2018-08-18T13:26:35.692Z,100914.58
2018-08-18T13:29:11.548Z,100932.25
2018-08-18T13:31:47.382Z,100930.95
2018-08-18T13:34:23.145Z,100921.67
2018-08-18T13:36:58.943Z,100923.94
2018-08-18T13:39:34.957Z,100919.08
2018-08-18T13:42:24.966Z,100918.58
2018-08-18T13:45:00.820Z,100904.83
2018-08-18T13:47:36.809Z,100911.27
2018-08-18T13:50:15.519Z,100907.50
2018-08-18T13:52:51.681Z,100911.89
2018-08-18T13:55:47.931Z,100906.58
2018-08-18T13:58:23.774Z,100910.91
2018-08-18T14:00:59.791Z,100902.05
2018-08-18T14:03:35.746Z,100894.08
2018-08-18T14:06:11.623Z,100894.48
2018-08-18T14:08:51.547Z,100893.19
2018-08-18T14:11:27.375Z,100889.13
2018-08-18T14:14:03.452Z,100887.91
2018-08-18T14:16:39.355Z,100891.66
2018-08-18T14:19:15.159Z,100894.72
2018-08-18T14:21:55.619Z,100889.45
2018-08-18T14:24:35.098Z,100885.52
2018-08-18T14:27:15.408Z,100896.20
2018-08-18T14:29:51.133Z,100886.68
2018-08-18T14:32:27.855Z,100887.05
2018-08-18T14:35:06.478Z,100885.54
2018-08-18T14:37:43.131Z,100883.81
2018-08-18T14:40:19.556Z,100876.26
2018-08-18T14:42:55.369Z,100889.62
2018-08-18T14:45:31.267Z,100882.62
2018-08-18T14:48:07.196Z,100880.08
2018-08-18T14:50:43.032Z,100886.10
2018-08-18T14:53:25.812Z,100875.25
2018-08-18T14:56:01.552Z,100882.84
2018-08-18T14:58:37.811Z,100882.34
2018-08-18T15:01:14.544Z,100878.46
2018-08-18T15:03:50.640Z,100866.59
2018-08-18T15:06:26.707Z,100875.48
2018-08-18T15:09:02.585Z,100870.81
2018-08-18T15:11:38.562Z,100869.30
2018-08-18T15:14:14.419Z,100872.64
2018-08-18T15:16:50.414Z,100880.11
2018-08-18T15:19:26.448Z,100866.78
2018-08-18T15:22:06.427Z,100873.54
2018-08-18T15:24:42.219Z,100876.07
2018-08-18T15:27:18.051Z,100871.37
2018-08-18T15:29:54.098Z,100866.25
2018-08-18T15:32:30.085Z,100868.61
2018-08-18T15:35:06.117Z,100868.14
2018-08-18T15:37:41.975Z,100858.13
2018-08-18T15:40:18.093Z,100860.30
2018-08-18T15:42:54.135Z,100863.59
2018-08-18T15:45:30.646Z,100861.48
2018-08-18T15:48:06.746Z,100859.41
2018-08-18T15:50:42.719Z,100856.09
2018-08-18T15:53:18.582Z,100848.84
2018-08-18T15:55:54.528Z,100852.37
2018-08-18T15:58:30.503Z,100848.78
2018-08-18T16:01:06.815Z,100847.29
2018-08-18T16:03:42.630Z,100850.87
2018-08-18T16:06:18.716Z,100851.23
2018-08-18T16:08:54.863Z,100845.93
2018-08-18T16:11:30.929Z,100843.23
2018-08-18T16:14:07.056Z,100856.30
2018-08-18T16:17:01.024Z,100854.95
2018-08-18T16:19:37.318Z,100849.12
2018-08-18T16:22:13.127Z,100850.19
2018-08-18T16:24:49.057Z,100850.05
2018-08-18T16:27:24.884Z,100847.25
2018-08-18T16:30:00.783Z,100852.19
2018-08-18T16:32:36.820Z,100847.97
2018-08-18T16:35:12.827Z,100856.14
2018-08-18T16:37:48.766Z,100846.72
2018-08-18T16:40:24.798Z,100851.30
2018-08-18T16:43:02.341Z,100846.95
2018-08-18T16:45:38.973Z,100852.48
2018-08-18T16:48:15.230Z,100853.41
2018-08-18T16:50:51.262Z,100857.79
2018-08-18T16:53:27.105Z,100857.39
2018-08-18T16:56:03.145Z,100857.20
2018-08-18T16:58:41.427Z,100851.75
2018-08-18T17:01:17.847Z,100850.86
2018-08-18T17:03:53.919Z,100856.67
2018-08-18T17:06:29.688Z,100852.34
2018-08-18T17:09:06.140Z,100853.63
2018-08-18T17:11:41.991Z,100856.86
2018-08-18T17:14:20.727Z,100858.95
2018-08-18T17:16:56.727Z,100856.86
2018-08-18T17:19:32.571Z,100860.00
2018-08-18T17:22:09.762Z,100864.00
2018-08-18T17:24:45.824Z,100865.25
2018-08-18T17:27:21.668Z,100863.61
2018-08-18T17:29:57.699Z,100863.53
2018-08-18T17:32:33.618Z,100860.39
2018-08-18T17:35:09.619Z,100866.47
2018-08-18T17:37:45.439Z,100862.65
2018-08-18T17:40:21.423Z,100870.67
2018-08-18T17:42:57.263Z,100880.11
2018-08-18T17:45:40.581Z,100879.56
2018-08-18T17:48:16.432Z,100882.95
2018-08-18T17:50:52.977Z,100884.89
2018-08-18T17:53:29.046Z,100886.01
2018-08-18T17:56:05.280Z,100889.16
2018-08-18T17:58:41.447Z,100890.00
2018-08-18T18:01:17.223Z,100887.55
2018-08-18T18:03:53.199Z,100891.08
2018-08-18T18:06:29.301Z,100894.13
2018-08-18T18:09:05.604Z,100897.82
2018-08-18T18:11:41.438Z,100895.48
2018-08-18T18:14:17.498Z,100893.13
2018-08-18T18:16:53.638Z,100897.22
2018-08-18T18:19:29.557Z,100903.28
2018-08-18T18:22:05.675Z,100901.08
2018-08-18T18:24:43.715Z,100900.21
2018-08-18T18:27:19.804Z,100898.87
2018-08-18T18:29:55.660Z,100896.22
2018-08-18T18:32:31.485Z,100898.23
2018-08-18T18:35:07.629Z,100905.98
2018-08-18T18:37:43.573Z,100900.02
2018-08-18T18:40:19.642Z,100900.90
2018-08-18T18:42:55.420Z,100904.28
2018-08-18T18:45:32.214Z,100909.44
2018-08-18T18:48:11.318Z,100911.03
2018-08-18T18:50:49.190Z,100917.73
2018-08-18T18:53:26.681Z,100917.61
2018-08-18T18:56:02.443Z,100925.34
2018-08-18T18:58:38.380Z,100929.06
2018-08-18T19:01:18.796Z,100935.83
2018-08-18T19:03:54.772Z,100938.42
2018-08-18T19:06:31.034Z,100936.61
2018-08-18T19:09:07.246Z,100935.80
2018-08-18T19:11:43.543Z,100941.92
2018-08-18T19:14:23.797Z,100944.66
2018-08-18T19:16:59.915Z,100954.44
2018-08-18T19:19:35.972Z,100954.48
2018-08-18T19:22:12.132Z,100956.10
2018-08-18T19:24:48.428Z,100951.73
2018-08-18T19:27:24.302Z,100963.81
2018-08-18T19:30:00.296Z,100964.32
2018-08-18T19:33:39.091Z,100965.56
2018-08-18T19:36:15.070Z,100971.78
2018-08-18T19:38:51.092Z,100973.38
2018-08-18T19:41:26.988Z,100971.90
2018-08-18T19:44:03.040Z,100974.44
2018-08-18T19:46:38.877Z,100965.44
2018-08-18T19:49:26.249Z,100972.50
2018-08-18T19:52:06.083Z,100973.38
2018-08-18T19:54:45.221Z,100971.91
2018-08-18T19:57:27.728Z,100975.33
2018-08-18T20:00:11.321Z,100971.55
2018-08-18T20:03:10.707Z,100965.82
2018-08-18T20:05:47.278Z,100967.52
2018-08-18T20:08:24.392Z,100967.02
2018-08-18T20:11:02.016Z,100970.41
2018-08-18T20:13:37.852Z,100970.28
2018-08-18T20:16:13.801Z,100971.59
2018-08-18T20:18:49.717Z,100973.54
2018-08-18T20:21:25.706Z,100976.06
2018-08-18T20:24:01.763Z,100973.64
2018-08-18T20:26:37.677Z,100969.50
2018-08-18T20:29:13.628Z,100971.19
2018-08-18T20:32:02.545Z,100963.59
2018-08-18T20:34:38.503Z,100962.61
2018-08-18T20:37:14.464Z,100959.33
2018-08-18T20:39:50.547Z,100963.09
2018-08-18T20:42:31.646Z,100958.08
2018-08-18T20:45:08.047Z,100964.30
2018-08-18T20:47:45.567Z,100969.27
2018-08-18T20:50:21.681Z,100970.34
2018-08-18T20:53:07.963Z,100973.84
2018-08-18T20:55:46.331Z,100967.02
2018-08-18T20:58:22.558Z,100967.75
2018-08-18T21:00:58.704Z,100968.45
2018-08-18T21:03:49.794Z,100965.20
2018-08-18T21:06:25.843Z,100966.38
2018-08-18T21:09:04.815Z,100969.30
2018-08-18T21:11:41.456Z,100972.31
2018-08-18T21:14:17.397Z,100974.95
2018-08-18T21:16:54.839Z,100977.33
2018-08-18T21:19:31.978Z,100981.47
2018-08-18T21:25:17.540Z,100983.34
2018-08-18T21:27:53.852Z,100981.12
2018-08-18T21:30:29.786Z,100984.02
2018-08-18T21:33:06.262Z,100988.23
2018-08-18T21:35:42.459Z,100988.95
2018-08-18T21:38:18.529Z,100983.72
2018-08-18T21:40:55.854Z,100985.27
2018-08-18T21:43:34.423Z,100987.92
2018-08-18T21:46:10.376Z,100991.52
2018-08-18T21:48:55.438Z,100980.41
2018-08-18T21:51:31.550Z,100980.41
2018-08-18T21:54:07.900Z,100992.66
2018-08-18T21:56:44.048Z,100993.45
2018-08-18T21:59:20.260Z,100987.48
2018-08-18T22:01:58.585Z,100990.48
2018-08-18T22:04:34.853Z,100989.73
2018-08-18T22:07:10.953Z,100988.61
2018-08-18T22:09:47.078Z,101002.56
2018-08-18T22:12:23.261Z,101001.34
2018-08-18T22:15:01.145Z,101002.61
2018-08-18T22:17:37.043Z,101004.98
2018-08-18T22:20:13.300Z,101001.09
2018-08-18T22:22:49.462Z,101005.63
2018-08-18T22:25:25.481Z,101014.23
2018-08-18T22:28:01.807Z,101019.89
2018-08-18T22:30:37.884Z,101019.42
2018-08-18T22:33:14.146Z,101020.13
2018-08-18T22:35:54.219Z,101024.72
2018-08-18T22:38:32.889Z,101022.88
2018-08-18T22:41:09.571Z,101024.45
2018-08-18T22:43:47.221Z,101017.22
2018-08-18T22:46:23.694Z,101026.41
2018-08-18T22:49:00.001Z,101025.86
2018-08-18T22:51:36.359Z,101021.89
2018-08-18T22:54:13.298Z,101025.73
2018-08-18T22:56:54.608Z,101029.58
2018-08-18T22:59:31.220Z,101029.10
2018-08-18T23:02:09.660Z,101029.58
2018-08-18T23:04:46.205Z,101030.63
2018-08-18T23:07:22.755Z,101032.94
2018-08-18T23:10:00.526Z,101024.26
2018-08-18T23:12:36.918Z,101030.19
2018-08-18T23:15:15.409Z,101031.24
2018-08-18T23:17:52.824Z,101026.77
2018-08-18T23:20:30.341Z,101026.87
2018-08-18T23:23:06.425Z,101029.86
2018-08-18T23:25:42.986Z,101025.30
2018-08-18T23:28:20.101Z,101025.59
2018-08-18T23:30:57.938Z,101020.45
2018-08-18T23:33:34.746Z,101019.42
2018-08-18T23:36:11.577Z,101023.06
2018-08-18T23:38:53.877Z,101021.99
2018-08-18T23:41:30.256Z,101018.58
2018-08-18T23:44:07.301Z,101018.30
2018-08-18T23:46:46.432Z,101016.67
2018-08-18T23:49:22.372Z,101025.38
2018-08-18T23:52:00.388Z,101013.55
2018-08-18T23:54:36.315Z,101010.61
2018-08-18T23:57:13.793Z,101014.03
2018-08-18T23:59:51.615Z,101008.03
